ENHD

Haugesund Airport

Karmøy, Norway
METAR ENHD 211320Z 24007KT 9999 FEW011 BKN035 17/13 Q1011
Observed Flight Rules
Jul-21 @ 13:20 UTC (24 minutes ago) Visual Flight Rules
Wind Visibility Clouds
240° at 7 knots 10,000+ meters
  • Few at 1,100' AGL
  • Broken at 3,500' AGL
Temperatures Readings
Current 17°C / 63°F
Dewpoint 13°C / 55°F
Humidity 77%
Altimeter 29.85" Hg
Pressure 1011 hPa
Elevation 24
METAR ENHD 211320Z 24007KT 9999 FEW011 BKN035 17/13 Q1011
Observed Flight Rules
Jul-21 @ 13:20 UTC
(24 minutes ago)
VFR
Wind Visibility
240° at 7 knots 10,000+ meters
Clouds
  • Few at 1,100' AGL
  • Broken at 3,500' AGL
Temperature Dewpoint
17°C / 63°F 13°C / 55°F
Humidity Altimeter Pressure
77% 29.85" Hg 1011 hPa